sensor_id;sensor_type;location;lat;lon;timestamp;P1;durP1;ratioP1;P2;durP2;ratioP2
12597;SDS011;6364;53.590;9.956;2023-02-28T00:01:28;5.40;;;1.50;;
12597;SDS011;6364;53.590;9.956;2023-02-28T00:03:54;6.20;;;1.60;;
12597;SDS011;6364;53.590;9.956;2023-02-28T00:06:19;6.22;;;1.70;;
12597;SDS011;6364;53.590;9.956;2023-02-28T00:08:45;6.03;;;1.92;;
12597;SDS011;6364;53.590;9.956;2023-02-28T00:11:12;7.78;;;1.45;;
12597;SDS011;6364;53.590;9.956;2023-02-28T00:13:41;4.45;;;1.80;;
12597;SDS011;6364;53.590;9.956;2023-02-28T00:16:08;6.20;;;1.75;;
12597;SDS011;6364;53.590;9.956;2023-02-28T00:18:35;3.72;;;1.65;;
12597;SDS011;6364;53.590;9.956;2023-02-28T00:21:01;4.88;;;2.00;;
12597;SDS011;6364;53.590;9.956;2023-02-28T00:23:26;4.65;;;1.75;;
12597;SDS011;6364;53.590;9.956;2023-02-28T00:25:52;5.65;;;2.13;;
12597;SDS011;6364;53.590;9.956;2023-02-28T00:28:18;6.03;;;2.10;;
12597;SDS011;6364;53.590;9.956;2023-02-28T00:30:43;5.07;;;2.05;;
12597;SDS011;6364;53.590;9.956;2023-02-28T00:33:08;7.03;;;2.08;;
12597;SDS011;6364;53.590;9.956;2023-02-28T00:35:34;4.95;;;2.05;;
12597;SDS011;6364;53.590;9.956;2023-02-28T00:37:59;8.48;;;2.47;;
12597;SDS011;6364;53.590;9.956;2023-02-28T00:40:25;3.88;;;1.90;;
12597;SDS011;6364;53.590;9.956;2023-02-28T00:42:50;7.40;;;2.10;;
12597;SDS011;6364;53.590;9.956;2023-02-28T00:45:15;6.50;;;2.00;;
12597;SDS011;6364;53.590;9.956;2023-02-28T00:47:41;6.40;;;2.50;;
12597;SDS011;6364;53.590;9.956;2023-02-28T00:50:06;5.68;;;2.10;;
12597;SDS011;6364;53.590;9.956;2023-02-28T00:52:33;6.65;;;2.10;;
12597;SDS011;6364;53.590;9.956;2023-02-28T00:54:58;8.52;;;2.40;;
12597;SDS011;6364;53.590;9.956;2023-02-28T00:57:24;7.15;;;2.55;;
12597;SDS011;6364;53.590;9.956;2023-02-28T00:59:49;6.15;;;2.20;;
12597;SDS011;6364;53.590;9.956;2023-02-28T01:02:14;7.07;;;2.38;;
12597;SDS011;6364;53.590;9.956;2023-02-28T01:04:40;9.25;;;2.83;;
12597;SDS011;6364;53.590;9.956;2023-02-28T01:07:05;6.13;;;2.13;;
12597;SDS011;6364;53.590;9.956;2023-02-28T01:09:30;5.82;;;2.35;;
12597;SDS011;6364;53.590;9.956;2023-02-28T01:11:56;8.65;;;2.58;;
12597;SDS011;6364;53.590;9.956;2023-02-28T01:14:21;6.95;;;1.90;;
12597;SDS011;6364;53.590;9.956;2023-02-28T01:16:46;10.00;;;2.58;;
12597;SDS011;6364;53.590;9.956;2023-02-28T01:19:12;7.07;;;2.40;;
12597;SDS011;6364;53.590;9.956;2023-02-28T01:21:37;8.73;;;2.45;;
12597;SDS011;6364;53.590;9.956;2023-02-28T01:24:03;3.50;;;2.45;;
12597;SDS011;6364;53.590;9.956;2023-02-28T01:26:29;6.05;;;2.40;;
12597;SDS011;6364;53.590;9.956;2023-02-28T01:28:54;7.75;;;2.38;;
12597;SDS011;6364;53.590;9.956;2023-02-28T01:31:20;6.38;;;2.38;;
12597;SDS011;6364;53.590;9.956;2023-02-28T01:33:46;6.95;;;2.40;;
12597;SDS011;6364;53.590;9.956;2023-02-28T01:38:38;6.90;;;2.42;;
12597;SDS011;6364;53.590;9.956;2023-02-28T01:41:04;6.90;;;2.42;;
12597;SDS011;6364;53.590;9.956;2023-02-28T01:43:31;11.27;;;2.85;;
12597;SDS011;6364;53.590;9.956;2023-02-28T01:46:09;3.55;;;1.95;;
12597;SDS011;6364;53.590;9.956;2023-02-28T01:48:36;4.57;;;2.53;;
12597;SDS011;6364;53.590;9.956;2023-02-28T01:51:08;10.10;;;2.17;;
12597;SDS011;6364;53.590;9.956;2023-02-28T01:53:40;7.40;;;2.33;;
12597;SDS011;6364;53.590;9.956;2023-02-28T01:56:09;5.53;;;2.00;;
12597;SDS011;6364;53.590;9.956;2023-02-28T01:58:37;4.53;;;1.85;;
12597;SDS011;6364;53.590;9.956;2023-02-28T02:01:03;7.60;;;2.33;;
12597;SDS011;6364;53.590;9.956;2023-02-28T02:03:29;7.03;;;2.28;;
12597;SDS011;6364;53.590;9.956;2023-02-28T02:05:54;8.45;;;2.50;;
12597;SDS011;6364;53.590;9.956;2023-02-28T02:08:21;7.00;;;2.30;;
12597;SDS011;6364;53.590;9.956;2023-02-28T02:10:48;6.88;;;2.45;;
12597;SDS011;6364;53.590;9.956;2023-02-28T02:13:28;4.90;;;2.60;;
12597;SDS011;6364;53.590;9.956;2023-02-28T02:22:12;9.23;;;3.60;;
12597;SDS011;6364;53.590;9.956;2023-02-28T02:27:32;9.93;;;3.97;;
12597;SDS011;6364;53.590;9.956;2023-02-28T02:33:10;12.45;;;5.30;;
12597;SDS011;6364;53.590;9.956;2023-02-28T02:35:56;22.02;;;6.68;;
12597;SDS011;6364;53.590;9.956;2023-02-28T02:38:47;31.30;;;12.27;;
12597;SDS011;6364;53.590;9.956;2023-02-28T02:41:27;27.45;;;11.70;;
12597;SDS011;6364;53.590;9.956;2023-02-28T02:47:06;74.18;;;26.23;;
12597;SDS011;6364;53.590;9.956;2023-02-28T02:49:35;98.03;;;34.72;;
12597;SDS011;6364;53.590;9.956;2023-02-28T02:52:03;148.88;;;51.00;;
12597;SDS011;6364;53.590;9.956;2023-02-28T02:54:32;139.07;;;48.65;;
12597;SDS011;6364;53.590;9.956;2023-02-28T02:57:01;126.30;;;46.50;;
12597;SDS011;6364;53.590;9.956;2023-02-28T02:59:29;130.13;;;47.63;;
12597;SDS011;6364;53.590;9.956;2023-02-28T03:01:56;120.63;;;42.58;;
12597;SDS011;6364;53.590;9.956;2023-02-28T03:04:24;116.70;;;40.63;;
12597;SDS011;6364;53.590;9.956;2023-02-28T03:06:50;98.60;;;35.83;;
12597;SDS011;6364;53.590;9.956;2023-02-28T03:09:20;78.50;;;27.73;;
12597;SDS011;6364;53.590;9.956;2023-02-28T03:11:46;81.10;;;27.67;;
12597;SDS011;6364;53.590;9.956;2023-02-28T03:14:34;88.38;;;32.22;;
12597;SDS011;6364;53.590;9.956;2023-02-28T03:19:59;72.07;;;24.88;;
12597;SDS011;6364;53.590;9.956;2023-02-28T03:25:41;87.40;;;29.88;;
12597;SDS011;6364;53.590;9.956;2023-02-28T03:31:37;91.13;;;33.15;;
12597;SDS011;6364;53.590;9.956;2023-02-28T03:34:12;109.38;;;39.20;;
12597;SDS011;6364;53.590;9.956;2023-02-28T03:36:43;110.72;;;39.42;;
12597;SDS011;6364;53.590;9.956;2023-02-28T03:39:22;111.63;;;36.63;;
12597;SDS011;6364;53.590;9.956;2023-02-28T03:41:52;99.88;;;37.15;;
12597;SDS011;6364;53.590;9.956;2023-02-28T03:44:34;101.70;;;36.83;;
12597;SDS011;6364;53.590;9.956;2023-02-28T03:47:09;98.55;;;34.05;;
12597;SDS011;6364;53.590;9.956;2023-02-28T03:49:49;102.40;;;35.45;;
12597;SDS011;6364;53.590;9.956;2023-02-28T03:52:18;105.00;;;34.90;;
12597;SDS011;6364;53.590;9.956;2023-02-28T03:54:46;101.78;;;35.80;;
12597;SDS011;6364;53.590;9.956;2023-02-28T03:59:49;94.63;;;33.00;;
12597;SDS011;6364;53.590;9.956;2023-02-28T04:02:21;71.97;;;28.52;;
12597;SDS011;6364;53.590;9.956;2023-02-28T04:04:47;88.07;;;29.13;;
12597;SDS011;6364;53.590;9.956;2023-02-28T04:07:13;69.32;;;24.08;;
12597;SDS011;6364;53.590;9.956;2023-02-28T04:09:39;72.57;;;26.25;;
12597;SDS011;6364;53.590;9.956;2023-02-28T04:12:04;69.47;;;24.38;;
12597;SDS011;6364;53.590;9.956;2023-02-28T04:14:30;72.15;;;25.77;;
12597;SDS011;6364;53.590;9.956;2023-02-28T04:16:55;79.22;;;29.45;;
12597;SDS011;6364;53.590;9.956;2023-02-28T04:19:21;87.68;;;29.98;;
12597;SDS011;6364;53.590;9.956;2023-02-28T04:21:47;77.95;;;27.50;;
12597;SDS011;6364;53.590;9.956;2023-02-28T04:24:18;79.35;;;26.52;;
12597;SDS011;6364;53.590;9.956;2023-02-28T04:29:18;65.07;;;23.23;;
12597;SDS011;6364;53.590;9.956;2023-02-28T04:31:47;82.32;;;28.98;;
12597;SDS011;6364;53.590;9.956;2023-02-28T04:34:12;61.67;;;22.73;;
12597;SDS011;6364;53.590;9.956;2023-02-28T04:36:38;66.50;;;24.50;;
12597;SDS011;6364;53.590;9.956;2023-02-28T04:39:03;60.45;;;22.75;;
12597;SDS011;6364;53.590;9.956;2023-02-28T04:41:29;65.60;;;23.80;;
12597;SDS011;6364;53.590;9.956;2023-02-28T04:43:54;61.90;;;24.77;;
12597;SDS011;6364;53.590;9.956;2023-02-28T04:46:21;56.40;;;21.30;;
12597;SDS011;6364;53.590;9.956;2023-02-28T04:48:46;57.03;;;20.35;;
12597;SDS011;6364;53.590;9.956;2023-02-28T04:51:13;58.22;;;22.25;;
12597;SDS011;6364;53.590;9.956;2023-02-28T04:53:40;62.88;;;21.60;;
12597;SDS011;6364;53.590;9.956;2023-02-28T04:56:06;51.65;;;19.08;;
12597;SDS011;6364;53.590;9.956;2023-02-28T04:58:33;55.65;;;20.65;;
12597;SDS011;6364;53.590;9.956;2023-02-28T05:01:06;56.47;;;21.63;;
12597;SDS011;6364;53.590;9.956;2023-02-28T05:03:45;64.45;;;21.15;;
12597;SDS011;6364;53.590;9.956;2023-02-28T05:06:11;60.47;;;19.98;;
12597;SDS011;6364;53.590;9.956;2023-02-28T05:08:37;73.80;;;22.15;;
12597;SDS011;6364;53.590;9.956;2023-02-28T05:11:02;55.40;;;19.40;;
12597;SDS011;6364;53.590;9.956;2023-02-28T05:13:28;54.97;;;19.27;;
12597;SDS011;6364;53.590;9.956;2023-02-28T05:15:54;61.55;;;22.48;;
12597;SDS011;6364;53.590;9.956;2023-02-28T05:18:20;64.00;;;22.08;;
12597;SDS011;6364;53.590;9.956;2023-02-28T05:20:45;66.63;;;21.92;;
12597;SDS011;6364;53.590;9.956;2023-02-28T05:23:11;52.33;;;20.80;;
12597;SDS011;6364;53.590;9.956;2023-02-28T05:25:37;56.42;;;19.80;;
12597;SDS011;6364;53.590;9.956;2023-02-28T05:28:03;49.70;;;19.55;;
12597;SDS011;6364;53.590;9.956;2023-02-28T05:30:29;50.67;;;17.58;;
12597;SDS011;6364;53.590;9.956;2023-02-28T05:32:54;48.17;;;16.88;;
12597;SDS011;6364;53.590;9.956;2023-02-28T05:35:20;47.97;;;17.75;;
12597;SDS011;6364;53.590;9.956;2023-02-28T05:37:45;49.80;;;18.30;;
12597;SDS011;6364;53.590;9.956;2023-02-28T05:40:11;40.97;;;16.95;;
12597;SDS011;6364;53.590;9.956;2023-02-28T05:42:36;45.35;;;18.90;;
12597;SDS011;6364;53.590;9.956;2023-02-28T05:45:03;45.28;;;16.35;;
12597;SDS011;6364;53.590;9.956;2023-02-28T05:47:28;49.95;;;19.17;;
12597;SDS011;6364;53.590;9.956;2023-02-28T05:49:54;50.88;;;18.08;;
12597;SDS011;6364;53.590;9.956;2023-02-28T05:52:19;43.80;;;17.50;;
12597;SDS011;6364;53.590;9.956;2023-02-28T05:54:45;47.58;;;18.95;;
12597;SDS011;6364;53.590;9.956;2023-02-28T05:57:11;50.40;;;18.40;;
12597;SDS011;6364;53.590;9.956;2023-02-28T05:59:36;41.47;;;16.13;;
12597;SDS011;6364;53.590;9.956;2023-02-28T06:02:04;40.75;;;16.55;;
12597;SDS011;6364;53.590;9.956;2023-02-28T06:04:30;39.63;;;15.10;;
12597;SDS011;6364;53.590;9.956;2023-02-28T06:06:56;45.10;;;16.17;;
12597;SDS011;6364;53.590;9.956;2023-02-28T06:09:22;44.03;;;15.45;;
12597;SDS011;6364;53.590;9.956;2023-02-28T06:11:47;60.63;;;20.38;;
12597;SDS011;6364;53.590;9.956;2023-02-28T06:14:17;42.08;;;14.43;;
12597;SDS011;6364;53.590;9.956;2023-02-28T06:16:43;36.28;;;14.48;;
12597;SDS011;6364;53.590;9.956;2023-02-28T06:19:12;51.35;;;16.00;;
12597;SDS011;6364;53.590;9.956;2023-02-28T06:21:38;39.08;;;15.40;;
12597;SDS011;6364;53.590;9.956;2023-02-28T06:24:03;35.90;;;16.13;;
12597;SDS011;6364;53.590;9.956;2023-02-28T06:26:29;39.60;;;14.75;;
12597;SDS011;6364;53.590;9.956;2023-02-28T06:28:55;39.33;;;15.25;;
12597;SDS011;6364;53.590;9.956;2023-02-28T06:31:20;39.85;;;15.10;;
12597;SDS011;6364;53.590;9.956;2023-02-28T06:33:47;41.78;;;15.32;;
12597;SDS011;6364;53.590;9.956;2023-02-28T06:36:13;41.05;;;14.68;;
12597;SDS011;6364;53.590;9.956;2023-02-28T06:38:39;36.33;;;13.95;;
12597;SDS011;6364;53.590;9.956;2023-02-28T06:41:06;41.03;;;15.80;;
12597;SDS011;6364;53.590;9.956;2023-02-28T06:43:33;39.45;;;16.33;;
12597;SDS011;6364;53.590;9.956;2023-02-28T06:46:00;38.05;;;13.95;;
12597;SDS011;6364;53.590;9.956;2023-02-28T06:48:27;40.30;;;16.05;;
12597;SDS011;6364;53.590;9.956;2023-02-28T06:51:00;35.95;;;14.73;;
12597;SDS011;6364;53.590;9.956;2023-02-28T06:53:35;40.28;;;15.40;;
12597;SDS011;6364;53.590;9.956;2023-02-28T06:56:08;39.13;;;15.65;;
12597;SDS011;6364;53.590;9.956;2023-02-28T06:58:35;40.58;;;15.35;;
12597;SDS011;6364;53.590;9.956;2023-02-28T07:01:01;37.45;;;15.30;;
12597;SDS011;6364;53.590;9.956;2023-02-28T07:03:27;34.67;;;14.57;;
12597;SDS011;6364;53.590;9.956;2023-02-28T07:05:52;37.65;;;14.82;;
12597;SDS011;6364;53.590;9.956;2023-02-28T07:08:17;37.70;;;14.60;;
12597;SDS011;6364;53.590;9.956;2023-02-28T07:10:43;33.53;;;14.43;;
12597;SDS011;6364;53.590;9.956;2023-02-28T07:13:08;36.70;;;14.27;;
12597;SDS011;6364;53.590;9.956;2023-02-28T07:15:37;32.47;;;13.95;;
12597;SDS011;6364;53.590;9.956;2023-02-28T07:18:02;27.92;;;13.13;;
12597;SDS011;6364;53.590;9.956;2023-02-28T07:20:28;26.92;;;12.02;;
12597;SDS011;6364;53.590;9.956;2023-02-28T07:22:54;24.88;;;11.95;;
12597;SDS011;6364;53.590;9.956;2023-02-28T07:25:25;23.88;;;10.25;;
12597;SDS011;6364;53.590;9.956;2023-02-28T07:27:52;20.45;;;10.40;;
12597;SDS011;6364;53.590;9.956;2023-02-28T07:30:18;22.23;;;10.15;;
12597;SDS011;6364;53.590;9.956;2023-02-28T07:32:43;20.80;;;10.73;;
12597;SDS011;6364;53.590;9.956;2023-02-28T07:35:09;20.45;;;10.93;;
12597;SDS011;6364;53.590;9.956;2023-02-28T07:37:34;21.02;;;10.85;;
12597;SDS011;6364;53.590;9.956;2023-02-28T07:40:06;24.83;;;10.88;;
12597;SDS011;6364;53.590;9.956;2023-02-28T07:42:33;19.48;;;9.05;;
12597;SDS011;6364;53.590;9.956;2023-02-28T07:44:59;16.13;;;7.72;;
12597;SDS011;6364;53.590;9.956;2023-02-28T07:47:24;20.70;;;8.57;;
12597;SDS011;6364;53.590;9.956;2023-02-28T07:49:50;17.90;;;8.07;;
12597;SDS011;6364;53.590;9.956;2023-02-28T07:52:15;15.63;;;7.88;;
12597;SDS011;6364;53.590;9.956;2023-02-28T07:54:41;19.60;;;7.80;;
12597;SDS011;6364;53.590;9.956;2023-02-28T07:57:06;13.25;;;6.43;;
12597;SDS011;6364;53.590;9.956;2023-02-28T07:59:31;19.95;;;6.47;;
12597;SDS011;6364;53.590;9.956;2023-02-28T08:01:57;12.30;;;6.20;;
12597;SDS011;6364;53.590;9.956;2023-02-28T08:04:22;15.68;;;5.93;;
12597;SDS011;6364;53.590;9.956;2023-02-28T08:06:48;14.18;;;5.20;;
12597;SDS011;6364;53.590;9.956;2023-02-28T08:09:13;12.45;;;5.50;;
12597;SDS011;6364;53.590;9.956;2023-02-28T08:11:39;12.15;;;5.22;;
12597;SDS011;6364;53.590;9.956;2023-02-28T08:14:04;10.98;;;4.97;;
12597;SDS011;6364;53.590;9.956;2023-02-28T08:16:30;12.10;;;4.82;;
12597;SDS011;6364;53.590;9.956;2023-02-28T08:18:56;10.52;;;4.95;;
12597;SDS011;6364;53.590;9.956;2023-02-28T08:21:21;11.88;;;4.45;;
12597;SDS011;6364;53.590;9.956;2023-02-28T08:23:47;10.88;;;4.28;;
12597;SDS011;6364;53.590;9.956;2023-02-28T08:26:13;8.05;;;3.95;;
12597;SDS011;6364;53.590;9.956;2023-02-28T08:28:39;10.18;;;4.10;;
12597;SDS011;6364;53.590;9.956;2023-02-28T08:31:08;5.78;;;3.03;;
12597;SDS011;6364;53.590;9.956;2023-02-28T08:33:38;9.38;;;3.75;;
12597;SDS011;6364;53.590;9.956;2023-02-28T08:36:04;5.40;;;3.33;;
12597;SDS011;6364;53.590;9.956;2023-02-28T08:38:30;8.40;;;2.92;;
12597;SDS011;6364;53.590;9.956;2023-02-28T08:41:04;9.77;;;2.70;;
12597;SDS011;6364;53.590;9.956;2023-02-28T08:43:32;12.23;;;2.65;;
12597;SDS011;6364;53.590;9.956;2023-02-28T08:45:58;5.35;;;2.20;;
12597;SDS011;6364;53.590;9.956;2023-02-28T08:48:24;3.92;;;2.17;;
12597;SDS011;6364;53.590;9.956;2023-02-28T08:53:22;4.50;;;2.03;;
12597;SDS011;6364;53.590;9.956;2023-02-28T08:55:54;6.18;;;2.35;;
12597;SDS011;6364;53.590;9.956;2023-02-28T09:00:46;3.28;;;2.25;;
12597;SDS011;6364;53.590;9.956;2023-02-28T09:03:12;2.53;;;1.88;;
12597;SDS011;6364;53.590;9.956;2023-02-28T09:05:37;3.55;;;1.95;;
12597;SDS011;6364;53.590;9.956;2023-02-28T09:08:02;3.65;;;2.00;;
12597;SDS011;6364;53.590;9.956;2023-02-28T09:10:28;3.78;;;2.20;;
12597;SDS011;6364;53.590;9.956;2023-02-28T09:12:53;7.32;;;1.92;;
12597;SDS011;6364;53.590;9.956;2023-02-28T09:15:18;3.28;;;1.52;;
12597;SDS011;6364;53.590;9.956;2023-02-28T09:17:44;4.32;;;1.90;;
12597;SDS011;6364;53.590;9.956;2023-02-28T09:20:09;4.82;;;1.80;;
12597;SDS011;6364;53.590;9.956;2023-02-28T09:22:35;4.03;;;1.80;;
12597;SDS011;6364;53.590;9.956;2023-02-28T09:25:00;3.65;;;1.40;;
12597;SDS011;6364;53.590;9.956;2023-02-28T09:27:26;1.73;;;1.30;;
12597;SDS011;6364;53.590;9.956;2023-02-28T09:29:51;3.20;;;1.38;;
12597;SDS011;6364;53.590;9.956;2023-02-28T09:32:16;2.80;;;1.00;;
12597;SDS011;6364;53.590;9.956;2023-02-28T09:34:42;6.68;;;1.70;;
12597;SDS011;6364;53.590;9.956;2023-02-28T09:37:08;4.30;;;1.40;;
12597;SDS011;6364;53.590;9.956;2023-02-28T09:39:33;3.97;;;1.35;;
12597;SDS011;6364;53.590;9.956;2023-02-28T09:41:58;2.67;;;1.27;;
12597;SDS011;6364;53.590;9.956;2023-02-28T09:44:32;1.42;;;0.88;;
12597;SDS011;6364;53.590;9.956;2023-02-28T09:47:26;2.33;;;1.50;;
12597;SDS011;6364;53.590;9.956;2023-02-28T09:49:51;2.97;;;1.70;;
12597;SDS011;6364;53.590;9.956;2023-02-28T09:52:30;2.53;;;1.30;;
12597;SDS011;6364;53.590;9.956;2023-02-28T09:55:00;1.30;;;1.13;;
12597;SDS011;6364;53.590;9.956;2023-02-28T09:57:39;3.92;;;1.35;;
12597;SDS011;6364;53.590;9.956;2023-02-28T10:00:18;1.98;;;1.15;;
12597;SDS011;6364;53.590;9.956;2023-02-28T10:03:04;2.92;;;1.58;;
12597;SDS011;6364;53.590;9.956;2023-02-28T10:05:37;2.03;;;1.40;;
12597;SDS011;6364;53.590;9.956;2023-02-28T10:08:11;3.90;;;1.80;;
12597;SDS011;6364;53.590;9.956;2023-02-28T10:10:41;2.17;;;1.52;;
12597;SDS011;6364;53.590;9.956;2023-02-28T10:16:03;4.47;;;1.77;;
12597;SDS011;6364;53.590;9.956;2023-02-28T10:18:35;3.30;;;1.52;;
12597;SDS011;6364;53.590;9.956;2023-02-28T10:21:05;1.90;;;1.60;;
12597;SDS011;6364;53.590;9.956;2023-02-28T10:23:38;3.25;;;1.60;;
12597;SDS011;6364;53.590;9.956;2023-02-28T10:26:09;2.53;;;1.63;;
12597;SDS011;6364;53.590;9.956;2023-02-28T10:28:40;5.20;;;1.70;;
12597;SDS011;6364;53.590;9.956;2023-02-28T10:31:08;4.80;;;1.70;;
12597;SDS011;6364;53.590;9.956;2023-02-28T10:33:41;3.72;;;1.73;;
12597;SDS011;6364;53.590;9.956;2023-02-28T10:36:08;2.13;;;1.27;;
12597;SDS011;6364;53.590;9.956;2023-02-28T10:38:38;2.97;;;1.90;;
12597;SDS011;6364;53.590;9.956;2023-02-28T10:43:31;3.40;;;1.70;;
12597;SDS011;6364;53.590;9.956;2023-02-28T10:45:57;1.85;;;1.42;;
12597;SDS011;6364;53.590;9.956;2023-02-28T10:48:30;2.53;;;1.38;;
12597;SDS011;6364;53.590;9.956;2023-02-28T10:50:58;2.67;;;1.80;;
12597;SDS011;6364;53.590;9.956;2023-02-28T10:58:42;1.83;;;1.38;;
12597;SDS011;6364;53.590;9.956;2023-02-28T11:03:55;4.80;;;2.50;;
12597;SDS011;6364;53.590;9.956;2023-02-28T11:06:23;3.05;;;1.90;;
12597;SDS011;6364;53.590;9.956;2023-02-28T11:08:55;2.35;;;1.55;;
12597;SDS011;6364;53.590;9.956;2023-02-28T11:11:22;4.43;;;1.50;;
12597;SDS011;6364;53.590;9.956;2023-02-28T11:13:50;3.97;;;1.55;;
12597;SDS011;6364;53.590;9.956;2023-02-28T11:16:17;3.42;;;1.58;;
12597;SDS011;6364;53.590;9.956;2023-02-28T11:18:52;2.17;;;1.45;;
12597;SDS011;6364;53.590;9.956;2023-02-28T11:21:23;2.45;;;1.55;;
12597;SDS011;6364;53.590;9.956;2023-02-28T11:23:51;3.47;;;1.67;;
12597;SDS011;6364;53.590;9.956;2023-02-28T11:26:37;3.38;;;1.30;;
12597;SDS011;6364;53.590;9.956;2023-02-28T11:29:03;4.00;;;1.55;;
12597;SDS011;6364;53.590;9.956;2023-02-28T11:31:35;2.72;;;1.50;;
12597;SDS011;6364;53.590;9.956;2023-02-28T11:34:01;6.28;;;1.90;;
12597;SDS011;6364;53.590;9.956;2023-02-28T11:36:28;3.72;;;1.70;;
12597;SDS011;6364;53.590;9.956;2023-02-28T11:38:56;3.90;;;1.60;;
12597;SDS011;6364;53.590;9.956;2023-02-28T11:41:33;2.83;;;2.00;;
12597;SDS011;6364;53.590;9.956;2023-02-28T11:46:44;2.97;;;1.92;;
12597;SDS011;6364;53.590;9.956;2023-02-28T11:51:58;2.60;;;1.58;;
12597;SDS011;6364;53.590;9.956;2023-02-28T11:56:55;2.55;;;1.65;;
12597;SDS011;6364;53.590;9.956;2023-02-28T12:02:05;3.20;;;2.00;;
12597;SDS011;6364;53.590;9.956;2023-02-28T12:07:45;3.00;;;1.80;;
12597;SDS011;6364;53.590;9.956;2023-02-28T12:10:22;2.92;;;1.90;;
12597;SDS011;6364;53.590;9.956;2023-02-28T12:26:37;3.60;;;1.92;;
12597;SDS011;6364;53.590;9.956;2023-02-28T12:34:22;3.80;;;2.47;;
12597;SDS011;6364;53.590;9.956;2023-02-28T12:36:52;4.03;;;2.05;;
12597;SDS011;6364;53.590;9.956;2023-02-28T12:39:28;4.40;;;2.25;;
12597;SDS011;6364;53.590;9.956;2023-02-28T12:42:04;5.57;;;2.33;;
12597;SDS011;6364;53.590;9.956;2023-02-28T12:47:32;5.20;;;2.50;;
12597;SDS011;6364;53.590;9.956;2023-02-28T12:50:07;4.22;;;2.15;;
12597;SDS011;6364;53.590;9.956;2023-02-28T12:55:23;2.50;;;2.08;;
12597;SDS011;6364;53.590;9.956;2023-02-28T13:00:38;4.35;;;2.10;;
12597;SDS011;6364;53.590;9.956;2023-02-28T13:03:32;3.63;;;2.33;;
12597;SDS011;6364;53.590;9.956;2023-02-28T13:06:28;4.22;;;2.30;;
12597;SDS011;6364;53.590;9.956;2023-02-28T13:09:07;3.83;;;2.08;;
12597;SDS011;6364;53.590;9.956;2023-02-28T13:11:42;3.92;;;2.13;;
12597;SDS011;6364;53.590;9.956;2023-02-28T13:14:23;6.75;;;2.30;;
12597;SDS011;6364;53.590;9.956;2023-02-28T13:19:24;3.42;;;2.25;;
12597;SDS011;6364;53.590;9.956;2023-02-28T13:21:51;2.63;;;1.98;;
12597;SDS011;6364;53.590;9.956;2023-02-28T13:29:33;4.57;;;2.70;;
12597;SDS011;6364;53.590;9.956;2023-02-28T13:35:34;6.88;;;2.47;;
12597;SDS011;6364;53.590;9.956;2023-02-28T13:39:54;6.57;;;2.60;;
12597;SDS011;6364;53.590;9.956;2023-02-28T13:42:52;7.30;;;2.55;;
12597;SDS011;6364;53.590;9.956;2023-02-28T13:45:35;5.40;;;2.40;;
12597;SDS011;6364;53.590;9.956;2023-02-28T13:48:17;7.03;;;2.50;;
12597;SDS011;6364;53.590;9.956;2023-02-28T13:50:43;4.50;;;2.22;;
12597;SDS011;6364;53.590;9.956;2023-02-28T14:04:01;5.75;;;2.40;;
12597;SDS011;6364;53.590;9.956;2023-02-28T14:06:46;5.07;;;2.17;;
12597;SDS011;6364;53.590;9.956;2023-02-28T14:09:21;6.30;;;2.50;;
12597;SDS011;6364;53.590;9.956;2023-02-28T14:11:50;4.28;;;2.42;;
12597;SDS011;6364;53.590;9.956;2023-02-28T14:17:00;4.82;;;2.40;;
12597;SDS011;6364;53.590;9.956;2023-02-28T14:19:27;6.00;;;2.80;;
12597;SDS011;6364;53.590;9.956;2023-02-28T14:27:57;5.90;;;2.67;;
12597;SDS011;6364;53.590;9.956;2023-02-28T14:30:50;11.77;;;3.20;;
12597;SDS011;6364;53.590;9.956;2023-02-28T14:33:20;3.63;;;2.30;;
12597;SDS011;6364;53.590;9.956;2023-02-28T14:38:36;6.70;;;2.58;;
12597;SDS011;6364;53.590;9.956;2023-02-28T14:41:16;4.57;;;2.67;;
12597;SDS011;6364;53.590;9.956;2023-02-28T14:43:49;5.82;;;3.05;;
12597;SDS011;6364;53.590;9.956;2023-02-28T14:46:16;4.25;;;2.75;;
12597;SDS011;6364;53.590;9.956;2023-02-28T14:48:44;8.18;;;2.85;;
12597;SDS011;6364;53.590;9.956;2023-02-28T14:51:17;7.55;;;2.95;;
12597;SDS011;6364;53.590;9.956;2023-02-28T14:53:44;8.30;;;3.30;;
12597;SDS011;6364;53.590;9.956;2023-02-28T14:56:25;7.20;;;3.13;;
12597;SDS011;6364;53.590;9.956;2023-02-28T14:58:54;7.90;;;3.00;;
12597;SDS011;6364;53.590;9.956;2023-02-28T15:01:21;8.02;;;3.03;;
12597;SDS011;6364;53.590;9.956;2023-02-28T15:03:47;9.32;;;2.90;;
12597;SDS011;6364;53.590;9.956;2023-02-28T15:08:39;5.95;;;2.65;;
12597;SDS011;6364;53.590;9.956;2023-02-28T15:11:06;7.30;;;2.63;;
12597;SDS011;6364;53.590;9.956;2023-02-28T15:13:40;5.97;;;2.72;;
12597;SDS011;6364;53.590;9.956;2023-02-28T15:16:10;7.88;;;3.40;;
12597;SDS011;6364;53.590;9.956;2023-02-28T15:21:13;9.02;;;3.00;;
12597;SDS011;6364;53.590;9.956;2023-02-28T15:23:42;11.20;;;5.25;;
12597;SDS011;6364;53.590;9.956;2023-02-28T15:26:14;8.27;;;3.03;;
12597;SDS011;6364;53.590;9.956;2023-02-28T15:28:41;14.63;;;3.38;;
12597;SDS011;6364;53.590;9.956;2023-02-28T15:31:17;5.07;;;2.95;;
12597;SDS011;6364;53.590;9.956;2023-02-28T15:33:52;10.65;;;2.80;;
12597;SDS011;6364;53.590;9.956;2023-02-28T15:38:49;9.13;;;3.30;;
12597;SDS011;6364;53.590;9.956;2023-02-28T15:41:26;9.93;;;2.95;;
12597;SDS011;6364;53.590;9.956;2023-02-28T15:47:22;5.97;;;2.90;;
12597;SDS011;6364;53.590;9.956;2023-02-28T15:52:15;4.55;;;2.83;;
12597;SDS011;6364;53.590;9.956;2023-02-28T15:54:42;6.97;;;3.17;;
12597;SDS011;6364;53.590;9.956;2023-02-28T15:57:12;5.85;;;2.30;;
12597;SDS011;6364;53.590;9.956;2023-02-28T15:59:42;5.18;;;2.55;;
12597;SDS011;6364;53.590;9.956;2023-02-28T16:04:55;11.73;;;3.13;;
12597;SDS011;6364;53.590;9.956;2023-02-28T16:07:22;6.93;;;2.72;;
12597;SDS011;6364;53.590;9.956;2023-02-28T16:09:47;8.63;;;3.70;;
12597;SDS011;6364;53.590;9.956;2023-02-28T16:12:13;6.38;;;2.78;;
12597;SDS011;6364;53.590;9.956;2023-02-28T16:14:38;5.53;;;2.80;;
12597;SDS011;6364;53.590;9.956;2023-02-28T16:17:06;10.65;;;3.00;;
12597;SDS011;6364;53.590;9.956;2023-02-28T16:19:34;8.40;;;3.10;;
12597;SDS011;6364;53.590;9.956;2023-02-28T16:21:59;9.30;;;2.85;;
12597;SDS011;6364;53.590;9.956;2023-02-28T16:24:25;6.30;;;3.22;;
12597;SDS011;6364;53.590;9.956;2023-02-28T16:26:50;6.50;;;2.97;;
12597;SDS011;6364;53.590;9.956;2023-02-28T16:29:31;6.85;;;2.97;;
12597;SDS011;6364;53.590;9.956;2023-02-28T16:31:59;8.43;;;2.70;;
12597;SDS011;6364;53.590;9.956;2023-02-28T16:34:24;8.35;;;2.70;;
12597;SDS011;6364;53.590;9.956;2023-02-28T16:36:50;6.10;;;2.75;;
12597;SDS011;6364;53.590;9.956;2023-02-28T16:39:16;5.80;;;2.85;;
12597;SDS011;6364;53.590;9.956;2023-02-28T16:41:42;8.85;;;2.85;;
12597;SDS011;6364;53.590;9.956;2023-02-28T16:44:27;5.28;;;2.47;;
12597;SDS011;6364;53.590;9.956;2023-02-28T16:46:54;7.78;;;2.85;;
12597;SDS011;6364;53.590;9.956;2023-02-28T16:49:20;5.10;;;2.20;;
12597;SDS011;6364;53.590;9.956;2023-02-28T16:51:45;4.90;;;2.70;;
12597;SDS011;6364;53.590;9.956;2023-02-28T16:54:11;9.52;;;2.78;;
12597;SDS011;6364;53.590;9.956;2023-02-28T16:56:38;9.27;;;2.30;;
12597;SDS011;6364;53.590;9.956;2023-02-28T16:59:05;6.25;;;2.70;;
12597;SDS011;6364;53.590;9.956;2023-02-28T17:01:30;4.72;;;2.38;;
12597;SDS011;6364;53.590;9.956;2023-02-28T17:03:56;5.07;;;2.92;;
12597;SDS011;6364;53.590;9.956;2023-02-28T17:06:25;5.13;;;2.58;;
12597;SDS011;6364;53.590;9.956;2023-02-28T17:11:21;4.95;;;2.70;;
12597;SDS011;6364;53.590;9.956;2023-02-28T17:13:46;7.93;;;2.97;;
12597;SDS011;6364;53.590;9.956;2023-02-28T17:16:32;8.50;;;2.97;;
12597;SDS011;6364;53.590;9.956;2023-02-28T17:18:59;3.55;;;2.45;;
12597;SDS011;6364;53.590;9.956;2023-02-28T17:21:26;10.05;;;3.35;;
12597;SDS011;6364;53.590;9.956;2023-02-28T17:23:52;7.18;;;3.95;;
12597;SDS011;6364;53.590;9.956;2023-02-28T17:26:18;10.32;;;4.28;;